createdAt,value
2019-04-03T00:00:46.740Z,985.63
2019-04-03T00:01:57.643Z,985.63
2019-04-03T00:03:08.989Z,985.61
2019-04-03T00:04:19.715Z,985.57
2019-04-03T00:05:30.555Z,985.54
2019-04-03T00:06:41.388Z,985.52
2019-04-03T00:07:52.217Z,985.54
2019-04-03T00:09:06.124Z,985.52
2019-04-03T00:10:14.424Z,985.56
2019-04-03T00:11:25.740Z,985.54
2019-04-03T00:12:40.490Z,985.54
2019-04-03T00:13:48.414Z,985.57
2019-04-03T00:14:59.231Z,985.59
2019-04-03T00:16:10.194Z,985.61
2019-04-03T00:17:20.874Z,985.60
2019-04-03T00:18:31.696Z,985.58
2019-04-03T00:19:42.517Z,985.56
2019-04-03T00:20:53.334Z,985.54
2019-04-03T00:22:04.174Z,985.53
2019-04-03T00:23:15.027Z,985.55
2019-04-03T00:24:25.844Z,985.48
2019-04-03T00:25:36.621Z,985.52
2019-04-03T00:26:47.446Z,985.52
2019-04-03T00:27:58.765Z,985.52
2019-04-03T00:29:09.689Z,985.48
2019-04-03T00:30:21.877Z,985.53
2019-04-03T00:31:31.213Z,985.52
2019-04-03T00:32:42.043Z,985.57
2019-04-03T00:33:53.388Z,985.61
2019-04-03T00:35:03.694Z,985.64
2019-04-03T00:36:14.541Z,985.57
2019-04-03T00:37:25.310Z,985.58
2019-04-03T00:38:36.129Z,985.59
2019-04-03T00:39:46.929Z,985.58
2019-04-03T00:40:57.740Z,985.61
2019-04-03T00:42:08.749Z,985.65
2019-04-03T00:43:19.397Z,985.62
2019-04-03T00:44:30.216Z,985.55
2019-04-03T00:45:41.029Z,985.55
2019-04-03T00:46:51.849Z,985.52
2019-04-03T00:48:02.654Z,985.48
2019-04-03T00:49:13.967Z,985.49
2019-04-03T00:50:26.140Z,985.52
2019-04-03T00:51:35.590Z,985.53
2019-04-03T00:52:46.458Z,985.53
2019-04-03T00:53:58.013Z,985.53
2019-04-03T00:55:08.028Z,985.51
2019-04-03T00:56:18.944Z,985.53
2019-04-03T00:57:29.642Z,985.56
2019-04-03T00:58:40.456Z,985.56
2019-04-03T00:59:51.275Z,985.58
2019-04-03T01:01:02.081Z,985.59
2019-04-03T01:02:12.883Z,985.63
2019-04-03T01:03:23.697Z,985.56
2019-04-03T01:04:35.223Z,985.59
2019-04-03T01:05:45.789Z,985.56
2019-04-03T01:06:58.537Z,985.58
2019-04-03T01:08:07.403Z,985.55
2019-04-03T01:09:18.300Z,985.55
2019-04-03T01:10:29.817Z,985.53
2019-04-03T01:11:39.807Z,985.53
2019-04-03T01:12:50.611Z,985.53
2019-04-03T01:14:02.232Z,985.50
2019-04-03T01:15:12.203Z,985.51
2019-04-03T01:16:23.058Z,985.54
2019-04-03T01:17:34.919Z,985.52
2019-04-03T01:18:45.174Z,985.56
2019-04-03T01:19:55.886Z,985.55
2019-04-03T01:21:07.180Z,985.48
2019-04-03T01:22:17.480Z,985.51
2019-04-03T01:23:28.283Z,985.51
2019-04-03T01:24:39.121Z,985.52
2019-04-03T01:25:50.371Z,985.50
2019-04-03T01:27:01.295Z,985.50
2019-04-03T01:28:12.052Z,985.50
2019-04-03T01:29:22.741Z,985.46
2019-04-03T01:30:33.540Z,985.49
2019-04-03T01:31:44.926Z,985.48
2019-04-03T01:32:55.107Z,985.48
2019-04-03T01:34:05.906Z,985.44
2019-04-03T01:35:17.393Z,985.44
2019-04-03T01:36:27.467Z,985.44
2019-04-03T01:37:38.259Z,985.40
2019-04-03T01:38:49.942Z,985.44
2019-04-03T01:39:59.851Z,985.42
2019-04-03T01:41:10.634Z,985.41
2019-04-03T01:42:22.459Z,985.41
2019-04-03T01:43:32.291Z,985.40
2019-04-03T01:44:43.032Z,985.43
2019-04-03T01:45:56.603Z,985.42
2019-04-03T01:47:04.584Z,985.39
2019-04-03T01:48:15.374Z,985.39
2019-04-03T01:49:28.143Z,985.31
2019-04-03T01:50:36.954Z,985.39
2019-04-03T01:51:47.746Z,985.37
2019-04-03T01:52:58.538Z,985.31
2019-04-03T01:54:09.360Z,985.31
2019-04-03T01:55:20.122Z,985.28
2019-04-03T01:56:31.397Z,985.25
2019-04-03T01:57:42.182Z,985.27
2019-04-03T01:58:53.125Z,985.28
2019-04-03T02:00:03.864Z,985.28
2019-04-03T02:01:15.050Z,985.27
2019-04-03T02:02:25.835Z,985.28
2019-04-03T02:03:36.618Z,985.25
2019-04-03T02:04:47.566Z,985.27
2019-04-03T02:05:58.191Z,985.26
2019-04-03T02:07:08.974Z,985.24
2019-04-03T02:08:19.765Z,985.26
2019-04-03T02:09:30.557Z,985.30
2019-04-03T02:10:41.341Z,985.24
2019-04-03T02:11:52.131Z,985.23
2019-04-03T02:13:03.421Z,985.21
2019-04-03T02:14:14.229Z,985.22
2019-04-03T02:15:25.103Z,985.22
2019-04-03T02:16:35.817Z,985.26
2019-04-03T02:17:47.114Z,985.26
2019-04-03T02:18:58.099Z,985.21
2019-04-03T02:20:08.707Z,985.21
2019-04-03T02:21:19.642Z,985.19
2019-04-03T02:22:30.277Z,985.22
2019-04-03T02:23:41.567Z,985.19
2019-04-03T02:24:52.361Z,985.20
2019-04-03T02:26:03.162Z,985.14
2019-04-03T02:27:13.949Z,985.15
2019-04-03T02:28:24.745Z,985.15
2019-04-03T02:29:35.544Z,985.15
2019-04-03T02:30:47.166Z,985.11
2019-04-03T02:31:57.631Z,985.10
2019-04-03T02:33:08.416Z,985.02
2019-04-03T02:34:19.210Z,985.09
2019-04-03T02:35:30.172Z,985.06
2019-04-03T02:36:43.339Z,985.06
2019-04-03T02:37:51.583Z,985.02
2019-04-03T02:39:02.373Z,984.98
2019-04-03T02:40:13.206Z,985.00
2019-04-03T02:41:23.972Z,984.95
2019-04-03T02:42:34.869Z,984.96
2019-04-03T02:43:47.169Z,984.93
2019-04-03T02:44:56.864Z,984.92
2019-04-03T02:46:07.645Z,984.93
2019-04-03T02:47:18.436Z,984.87
2019-04-03T02:48:29.281Z,984.86
2019-04-03T02:49:42.975Z,984.84
2019-04-03T02:50:50.833Z,984.86
2019-04-03T02:52:01.622Z,984.78
2019-04-03T02:53:12.916Z,984.80
2019-04-03T02:54:23.944Z,984.78
2019-04-03T02:55:34.531Z,984.75
2019-04-03T02:56:46.257Z,984.77
2019-04-03T02:57:56.621Z,984.76
2019-04-03T02:59:07.697Z,984.79
2019-04-03T03:00:18.223Z,984.78
2019-04-03T03:01:29.004Z,984.78
2019-04-03T03:02:40.329Z,984.75
2019-04-03T03:03:51.078Z,984.76
2019-04-03T03:05:01.890Z,984.78
2019-04-03T03:06:12.695Z,984.80
2019-04-03T03:07:23.476Z,984.72
2019-04-03T03:08:34.274Z,984.76
2019-04-03T03:09:46.648Z,984.80
2019-04-03T03:10:55.877Z,984.76
2019-04-03T03:12:07.175Z,984.83
2019-04-03T03:13:18.436Z,984.87
2019-04-03T03:14:29.245Z,984.81
2019-04-03T03:15:41.245Z,984.81
2019-04-03T03:16:51.196Z,984.80
2019-04-03T03:18:01.648Z,984.82
2019-04-03T03:19:12.442Z,984.77
2019-04-03T03:20:23.401Z,984.75
2019-04-03T03:21:34.037Z,984.71
2019-04-03T03:22:44.829Z,984.74
2019-04-03T03:23:56.770Z,984.68
2019-04-03T03:25:06.423Z,984.68
2019-04-03T03:26:17.718Z,984.69
2019-04-03T03:27:28.802Z,984.67
2019-04-03T03:28:39.494Z,984.66
2019-04-03T03:29:50.180Z,984.62
2019-04-03T03:31:04.100Z,984.64
2019-04-03T03:32:18.891Z,984.63
2019-04-03T03:33:33.175Z,984.62
2019-04-03T03:34:51.389Z,984.56
2019-04-03T03:35:47.221Z,984.49
2019-04-03T03:37:00.652Z,984.45
2019-04-03T03:38:07.005Z,984.46
2019-04-03T03:39:17.324Z,984.47
2019-04-03T03:40:27.824Z,984.46
2019-04-03T03:41:39.452Z,984.48
2019-04-03T03:42:49.893Z,984.45
2019-04-03T03:44:00.742Z,984.44
2019-04-03T03:45:11.475Z,984.44
2019-04-03T03:46:26.460Z,984.46
2019-04-03T03:47:35.156Z,984.47
2019-04-03T03:48:45.012Z,984.47
2019-04-03T03:49:54.617Z,984.45
2019-04-03T03:51:05.909Z,984.49
2019-04-03T03:52:16.705Z,984.49
2019-04-03T03:53:27.682Z,984.48
2019-04-03T03:54:38.711Z,984.46
2019-04-03T03:55:49.730Z,984.48
2019-04-03T03:57:03.963Z,984.47
2019-04-03T03:58:13.198Z,984.55
2019-04-03T03:59:23.095Z,984.53
2019-04-03T04:00:33.664Z,984.50
2019-04-03T04:01:44.986Z,984.52
2019-04-03T04:02:55.737Z,984.52
2019-04-03T04:04:07.002Z,984.56
2019-04-03T04:05:21.349Z,984.51
2019-04-03T04:06:30.236Z,984.52
2019-04-03T04:07:39.687Z,984.49
2019-04-03T04:08:50.597Z,984.49
2019-04-03T04:10:01.367Z,984.50
2019-04-03T04:11:12.158Z,984.52
2019-04-03T04:12:23.298Z,984.50
2019-04-03T04:13:34.522Z,984.48
2019-04-03T04:14:44.987Z,984.51
2019-04-03T04:15:55.778Z,984.48
2019-04-03T04:17:09.485Z,984.47
2019-04-03T04:18:17.856Z,984.54
2019-04-03T04:19:30.697Z,984.52
2019-04-03T04:20:39.767Z,984.54
2019-04-03T04:21:50.480Z,984.53
2019-04-03T04:23:00.972Z,984.57
2019-04-03T04:24:11.905Z,984.59
2019-04-03T04:25:22.548Z,984.57
2019-04-03T04:26:33.335Z,984.52
2019-04-03T04:27:44.135Z,984.55
2019-04-03T04:28:54.915Z,984.53
2019-04-03T04:30:06.222Z,984.52
2019-04-03T04:31:17.228Z,984.50
2019-04-03T04:32:27.895Z,984.46
2019-04-03T04:33:38.842Z,984.44
2019-04-03T04:34:50.501Z,984.42
2019-04-03T04:36:00.401Z,984.47
2019-04-03T04:37:11.671Z,984.45
2019-04-03T04:38:22.587Z,984.54
2019-04-03T04:39:33.366Z,984.51
2019-04-03T04:40:44.143Z,984.49
2019-04-03T04:41:54.933Z,984.52
2019-04-03T04:43:08.275Z,984.49
2019-04-03T04:44:17.495Z,984.44
2019-04-03T04:45:28.286Z,984.47
2019-04-03T04:46:39.559Z,984.45
2019-04-03T04:47:50.354Z,984.45
2019-04-03T04:49:01.148Z,984.42
2019-04-03T04:50:12.424Z,984.44
2019-04-03T04:51:23.927Z,984.44
2019-04-03T04:52:34.606Z,984.48
2019-04-03T04:53:45.400Z,984.49
2019-04-03T04:54:56.196Z,984.47
2019-04-03T04:56:07.425Z,984.47
2019-04-03T04:57:18.529Z,984.50
2019-04-03T04:58:29.253Z,984.51
2019-04-03T04:59:40.065Z,984.47
2019-04-03T05:00:52.996Z,984.51
2019-04-03T05:02:01.514Z,984.49
2019-04-03T05:03:12.168Z,984.50
2019-04-03T05:04:25.168Z,984.48
2019-04-03T05:05:33.752Z,984.48
2019-04-03T05:06:44.544Z,984.48
2019-04-03T05:07:55.328Z,984.45
2019-04-03T05:09:06.121Z,984.47
2019-04-03T05:10:17.979Z,984.49
2019-04-03T05:11:27.694Z,984.50
2019-04-03T05:12:39.165Z,984.47
2019-04-03T05:13:49.379Z,984.49
2019-04-03T05:15:00.162Z,984.49
2019-04-03T05:16:10.952Z,984.53
2019-04-03T05:17:21.735Z,984.46
2019-04-03T05:18:32.520Z,984.48
2019-04-03T05:19:43.320Z,984.47
2019-04-03T05:20:54.102Z,984.50
2019-04-03T05:22:04.893Z,984.50
2019-04-03T05:23:16.462Z,984.46
2019-04-03T05:24:28.830Z,984.46
2019-04-03T05:25:37.760Z,984.49
2019-04-03T05:26:48.555Z,984.46
2019-04-03T05:27:59.350Z,984.46
2019-04-03T05:29:10.146Z,984.43
2019-04-03T05:30:21.064Z,984.46
2019-04-03T05:31:31.939Z,984.45
2019-04-03T05:32:42.512Z,984.49
2019-04-03T05:33:53.310Z,984.43
2019-04-03T05:35:04.111Z,984.43
2019-04-03T05:36:15.403Z,984.44
2019-04-03T05:37:25.687Z,984.40
2019-04-03T05:38:38.094Z,984.41
2019-04-03T05:39:47.413Z,984.45
2019-04-03T05:40:58.290Z,984.47
2019-04-03T05:42:09.052Z,984.48
2019-04-03T05:43:19.781Z,984.48
2019-04-03T05:44:33.373Z,984.50
2019-04-03T05:45:42.394Z,984.44
2019-04-03T05:46:53.279Z,984.46
2019-04-03T05:48:04.341Z,984.47
2019-04-03T05:49:14.751Z,984.48
2019-04-03T05:50:26.355Z,984.47
2019-04-03T05:51:36.350Z,984.47
2019-04-03T05:52:47.152Z,984.50
2019-04-03T05:53:57.960Z,984.49
2019-04-03T05:55:09.653Z,984.42
2019-04-03T05:56:19.557Z,984.47
2019-04-03T05:57:30.383Z,984.41
2019-04-03T05:58:54.019Z,984.40
2019-04-03T06:00:00.047Z,984.40
2019-04-03T06:01:06.243Z,984.38
2019-04-03T06:02:16.842Z,984.41
2019-04-03T06:03:37.642Z,984.47
2019-04-03T06:04:35.165Z,984.51
2019-04-03T06:05:45.993Z,984.54
2019-04-03T06:06:56.793Z,984.53
2019-04-03T06:08:08.380Z,984.57
2019-04-03T06:09:20.117Z,984.56
2019-04-03T06:10:32.355Z,984.57
2019-04-03T06:11:41.218Z,984.56
2019-04-03T06:12:51.832Z,984.54
2019-04-03T06:14:02.862Z,984.48
2019-04-03T06:15:13.462Z,984.46
2019-04-03T06:16:24.975Z,984.39
2019-04-03T06:17:35.088Z,984.39
2019-04-03T06:18:47.567Z,984.36
2019-04-03T06:19:57.222Z,984.34
2019-04-03T06:21:08.285Z,984.35
2019-04-03T06:22:21.627Z,984.34
2019-04-03T06:23:30.176Z,984.38
2019-04-03T06:24:41.133Z,984.32
2019-04-03T06:25:52.314Z,984.33
2019-04-03T06:27:03.895Z,984.28
2019-04-03T06:28:14.940Z,984.24
2019-04-03T06:29:25.951Z,984.22
2019-04-03T06:30:37.269Z,984.24
2019-04-03T06:31:47.908Z,984.16
2019-04-03T06:33:00.929Z,984.14
2019-04-03T06:34:09.668Z,984.14
2019-04-03T06:35:20.513Z,984.19
2019-04-03T06:36:32.214Z,984.16
2019-04-03T06:37:43.042Z,984.13
2019-04-03T06:38:54.239Z,984.10
2019-04-03T06:40:04.710Z,984.06
2019-04-03T06:41:16.175Z,984.04
2019-04-03T06:42:26.880Z,984.01
2019-04-03T06:43:37.724Z,983.93
2019-04-03T06:44:48.571Z,983.88
2019-04-03T06:45:59.435Z,983.84
2019-04-03T06:47:10.276Z,983.84
2019-04-03T06:48:21.133Z,983.76
2019-04-03T06:49:32.064Z,983.76
2019-04-03T06:50:42.818Z,983.73
2019-04-03T06:51:53.679Z,983.72
2019-04-03T06:53:04.527Z,983.68
2019-04-03T06:54:15.900Z,983.69
2019-04-03T06:55:26.873Z,983.62
2019-04-03T06:56:39.977Z,983.60
2019-04-03T06:57:48.984Z,983.58
2019-04-03T06:58:59.850Z,983.52
2019-04-03T07:00:10.710Z,983.50
2019-04-03T07:01:21.647Z,983.46
2019-04-03T07:02:32.487Z,983.41
2019-04-03T07:03:43.308Z,983.39
2019-04-03T07:04:54.268Z,983.38
2019-04-03T07:06:05.024Z,983.36
2019-04-03T07:07:22.089Z,983.36
2019-04-03T07:08:32.132Z,983.35
2019-04-03T07:09:38.021Z,983.30
2019-04-03T07:10:54.942Z,983.23
2019-04-03T07:11:59.487Z,983.20
2019-04-03T07:13:10.357Z,983.19
2019-04-03T07:14:21.297Z,983.14
2019-04-03T07:15:32.115Z,983.11
2019-04-03T07:16:42.998Z,983.01
2019-04-03T07:17:53.884Z,982.97
2019-04-03T07:19:06.058Z,982.84
2019-04-03T07:20:19.362Z,982.73
2019-04-03T07:21:27.708Z,982.65
2019-04-03T07:22:37.962Z,982.66
2019-04-03T07:23:49.054Z,982.60
2019-04-03T07:25:02.624Z,982.56
2019-04-03T07:26:10.657Z,982.53
2019-04-03T07:27:21.558Z,982.52
2019-04-03T07:28:32.463Z,982.55
2019-04-03T07:29:43.369Z,982.53
2019-04-03T07:30:54.756Z,982.43
2019-04-03T07:32:05.682Z,982.44
2019-04-03T07:33:16.578Z,982.47
2019-04-03T07:34:27.681Z,982.53
2019-04-03T07:35:40.520Z,982.56
2019-04-03T07:36:50.776Z,982.54
2019-04-03T07:38:01.496Z,982.51
2019-04-03T07:39:12.399Z,982.60
2019-04-03T07:40:23.300Z,982.67
2019-04-03T07:41:34.206Z,982.83
2019-04-03T07:42:45.108Z,982.96
2019-04-03T07:43:58.917Z,983.00
2019-04-03T07:45:07.894Z,983.04
2019-04-03T07:46:18.795Z,983.10
2019-04-03T07:47:29.684Z,983.09
2019-04-03T07:48:40.586Z,983.12
2019-04-03T07:49:51.486Z,983.09
2019-04-03T07:51:02.383Z,983.02
2019-04-03T07:52:14.904Z,983.06
2019-04-03T07:53:25.182Z,983.09
2019-04-03T07:54:36.079Z,983.12
2019-04-03T07:55:47.459Z,983.10
2019-04-03T07:56:58.596Z,983.21
2019-04-03T07:58:09.257Z,983.31
2019-04-03T07:59:20.451Z,983.34
2019-04-03T08:00:31.518Z,983.39
2019-04-03T08:01:42.430Z,983.40
2019-04-03T08:02:53.517Z,983.46
2019-04-03T08:04:04.293Z,983.50
2019-04-03T08:05:15.204Z,983.55
2019-04-03T08:06:25.960Z,983.58
2019-04-03T08:07:37.854Z,983.44
2019-04-03T08:08:52.824Z,983.28
2019-04-03T08:10:00.697Z,983.09
2019-04-03T08:11:14.261Z,982.91
2019-04-03T08:12:22.579Z,982.79
2019-04-03T08:13:33.968Z,982.75
2019-04-03T08:14:45.123Z,982.67
2019-04-03T08:15:55.769Z,982.69
2019-04-03T08:17:06.663Z,982.71
2019-04-03T08:18:20.465Z,982.79
2019-04-03T08:19:29.960Z,982.85
2019-04-03T08:20:40.841Z,982.89
2019-04-03T08:21:51.733Z,983.02
2019-04-03T08:23:04.711Z,983.12
2019-04-03T08:24:13.516Z,983.17
2019-04-03T08:25:24.402Z,983.22
2019-04-03T08:26:35.284Z,983.25
2019-04-03T08:27:46.177Z,983.23
2019-04-03T08:28:57.309Z,983.18
2019-04-03T08:30:08.736Z,983.11
2019-04-03T08:31:19.067Z,983.05
2019-04-03T08:32:30.227Z,983.04
2019-04-03T08:33:41.139Z,982.92
2019-04-03T08:34:52.581Z,982.79
2019-04-03T08:36:06.826Z,982.71
2019-04-03T08:37:14.376Z,982.67
2019-04-03T08:38:25.370Z,982.54
2019-04-03T08:39:36.601Z,982.55
2019-04-03T08:40:47.069Z,982.51
2019-04-03T08:41:57.987Z,982.51
2019-04-03T08:43:08.881Z,982.52
2019-04-03T08:44:20.301Z,982.45
2019-04-03T08:45:31.209Z,982.33
2019-04-03T08:46:43.931Z,982.07
2019-04-03T08:47:54.057Z,981.77
2019-04-03T08:49:04.977Z,981.59
2019-04-03T08:50:15.896Z,981.55
2019-04-03T08:51:26.923Z,981.55
2019-04-03T08:52:37.845Z,981.65
2019-04-03T08:53:48.668Z,981.74
2019-04-03T08:54:59.591Z,981.80
2019-04-03T08:56:10.512Z,981.87
2019-04-03T08:57:21.592Z,982.05
2019-04-03T08:58:32.622Z,982.24
2019-04-03T08:59:43.263Z,982.37
2019-04-03T09:00:54.171Z,982.47
2019-04-03T09:02:07.060Z,982.56
2019-04-03T09:03:16.078Z,982.70
2019-04-03T09:04:27.385Z,982.80
2019-04-03T09:05:38.298Z,982.86
2019-04-03T09:06:49.214Z,982.93
2019-04-03T09:08:00.120Z,982.97
2019-04-03T09:09:11.009Z,983.08
2019-04-03T09:10:21.911Z,983.05
2019-04-03T09:11:35.553Z,982.97
2019-04-03T09:12:44.714Z,982.83
2019-04-03T09:13:55.925Z,982.80
2019-04-03T09:15:06.512Z,982.75
2019-04-03T09:16:17.426Z,982.75
2019-04-03T09:17:28.828Z,982.78
2019-04-03T09:18:39.764Z,982.74
2019-04-03T09:19:50.881Z,982.74
2019-04-03T09:21:01.549Z,982.63
2019-04-03T09:22:12.936Z,982.55
2019-04-03T09:23:25.115Z,982.45
2019-04-03T09:24:35.010Z,982.40
2019-04-03T09:25:45.751Z,982.34
2019-04-03T09:26:56.587Z,982.27
2019-04-03T09:28:08.960Z,982.22
2019-04-03T09:29:18.904Z,982.30
2019-04-03T09:30:29.820Z,982.34
2019-04-03T09:31:40.927Z,982.50
2019-04-03T09:32:53.185Z,982.57
2019-04-03T09:34:02.542Z,982.72
2019-04-03T09:35:13.598Z,982.84
2019-04-03T09:36:24.357Z,982.98
2019-04-03T09:37:38.018Z,983.12
2019-04-03T09:38:46.142Z,983.17
2019-04-03T09:39:57.178Z,983.29
2019-04-03T09:41:07.936Z,983.35
2019-04-03T09:42:19.590Z,983.44
2019-04-03T09:43:29.993Z,983.56
2019-04-03T09:44:40.794Z,983.71
2019-04-03T09:45:51.998Z,983.83
2019-04-03T09:47:03.775Z,983.96
2019-04-03T09:48:13.783Z,984.05
2019-04-03T09:49:24.667Z,984.19
2019-04-03T09:50:35.747Z,984.31
2019-04-03T09:51:46.436Z,984.40
2019-04-03T09:52:57.308Z,984.43
2019-04-03T09:54:08.670Z,984.46
2019-04-03T09:55:19.752Z,984.48
2019-04-03T09:56:30.436Z,984.48
2019-04-03T09:57:41.311Z,984.50
2019-04-03T09:58:52.185Z,984.49
2019-04-03T10:00:03.058Z,984.48
2019-04-03T10:01:17.695Z,984.43
2019-04-03T10:02:24.820Z,984.44
2019-04-03T10:03:35.683Z,984.44
2019-04-03T10:04:46.655Z,984.46
2019-04-03T10:05:59.378Z,984.49
2019-04-03T10:07:08.405Z,984.46
2019-04-03T10:08:19.183Z,984.47
2019-04-03T10:09:30.586Z,984.43
2019-04-03T10:10:41.469Z,984.44
2019-04-03T10:11:52.680Z,984.40
2019-04-03T10:13:03.692Z,984.41
2019-04-03T10:14:14.561Z,984.40
2019-04-03T10:15:25.422Z,984.43
2019-04-03T10:16:36.419Z,984.49
2019-04-03T10:17:47.650Z,984.47
2019-04-03T10:18:59.268Z,984.48
2019-04-03T10:20:10.076Z,984.49
2019-04-03T10:21:20.953Z,984.53
2019-04-03T10:22:31.619Z,984.51
2019-04-03T10:23:42.583Z,984.51
2019-04-03T10:24:53.451Z,984.49
2019-04-03T10:26:05.909Z,984.46
2019-04-03T10:27:15.194Z,984.41
2019-04-03T10:28:26.070Z,984.37
2019-04-03T10:29:36.950Z,984.41
2019-04-03T10:30:47.839Z,984.33
2019-04-03T10:31:59.210Z,984.37
2019-04-03T10:33:10.088Z,984.32
2019-04-03T10:34:20.964Z,984.30
2019-04-03T10:35:31.834Z,984.29
2019-04-03T10:36:43.685Z,984.29
2019-04-03T10:37:53.583Z,984.39
2019-04-03T10:39:04.445Z,984.46
2019-04-03T10:40:15.633Z,984.41
2019-04-03T10:41:28.398Z,984.42
2019-04-03T10:42:37.067Z,984.46
2019-04-03T10:43:47.944Z,984.44
2019-04-03T10:44:59.000Z,984.45
2019-04-03T10:46:09.820Z,984.45
2019-04-03T10:47:24.701Z,984.43
2019-04-03T10:48:32.134Z,984.41
2019-04-03T10:49:42.796Z,984.41
2019-04-03T10:50:53.613Z,984.41
2019-04-03T10:52:05.107Z,984.47
2019-04-03T10:53:15.860Z,984.51
2019-04-03T10:54:26.721Z,984.50
2019-04-03T10:55:37.924Z,984.52
2019-04-03T10:56:48.453Z,984.52
2019-04-03T10:58:01.619Z,984.50
2019-04-03T10:59:13.113Z,984.55
2019-04-03T11:00:23.508Z,984.47
2019-04-03T11:01:31.890Z,984.51
2019-04-03T11:46:34.572Z,982.66
2019-04-03T11:47:46.363Z,982.57
2019-04-03T11:48:56.487Z,982.44
2019-04-03T11:50:07.452Z,982.26
2019-04-03T11:51:18.419Z,982.12
2019-04-03T11:52:29.385Z,981.91
2019-04-03T11:53:40.472Z,981.67
2019-04-03T11:54:53.000Z,981.66
2019-04-03T11:56:02.429Z,981.47
2019-04-03T11:57:14.002Z,981.34
2019-04-03T11:58:24.474Z,981.30
2019-04-03T11:59:35.480Z,981.04
2019-04-03T12:00:46.530Z,979.57
2019-04-03T12:01:57.655Z,978.71
2019-04-03T12:03:10.717Z,978.09
2019-04-03T12:04:20.315Z,978.43
2019-04-03T12:05:31.513Z,978.45
2019-04-03T12:06:42.570Z,978.70
2019-04-03T12:07:55.779Z,979.18
2019-04-03T12:09:04.836Z,979.33
2019-04-03T12:10:15.978Z,979.47
2019-04-03T12:11:27.143Z,979.26
2019-04-03T12:12:38.471Z,979.51
2019-04-03T12:13:49.501Z,979.49
2019-04-03T12:15:00.694Z,979.18
2019-04-03T12:16:11.901Z,979.00
2019-04-03T12:17:23.114Z,978.78
2019-04-03T12:18:34.351Z,978.71
2019-04-03T12:19:46.161Z,978.79
2019-04-03T12:20:56.746Z,979.35
2019-04-03T12:22:07.924Z,980.07
2019-04-03T12:23:19.319Z,980.79
2019-04-03T12:24:30.465Z,981.15
2019-04-03T12:25:41.528Z,981.45
2019-04-03T12:26:55.427Z,981.73
2019-04-03T12:28:06.596Z,982.08
2019-04-03T12:29:14.790Z,982.51
2019-04-03T12:30:26.928Z,982.84
2019-04-03T12:31:36.994Z,983.01
2019-04-03T12:32:50.039Z,983.11
2019-04-03T12:34:04.183Z,983.02
2019-04-03T12:35:11.307Z,983.11
2019-04-03T12:36:21.457Z,983.23
2019-04-03T12:37:32.392Z,983.34
2019-04-03T12:38:43.358Z,983.31
2019-04-03T12:39:54.484Z,983.43
2019-04-03T12:41:06.060Z,983.56
2019-04-03T12:42:17.291Z,983.57
2019-04-03T12:43:27.624Z,983.68
2019-04-03T12:44:38.914Z,983.72
2019-04-03T12:45:49.563Z,983.79
2019-04-03T12:47:00.558Z,983.73
2019-04-03T12:48:11.543Z,983.65
2019-04-03T12:49:23.620Z,983.61
2019-04-03T12:50:33.625Z,983.61
2019-04-03T12:51:44.567Z,983.62
2019-04-03T12:52:55.453Z,983.56
2019-04-03T12:54:06.415Z,983.53
2019-04-03T12:55:17.385Z,983.60
2019-04-03T12:56:30.050Z,983.59
2019-04-03T12:57:40.345Z,983.57
2019-04-03T12:58:50.766Z,983.43
2019-04-03T13:00:01.737Z,983.26
2019-04-03T13:01:12.701Z,982.97
2019-04-03T13:02:23.665Z,982.65
2019-04-03T13:03:36.697Z,982.57
2019-04-03T13:04:45.817Z,982.40
2019-04-03T13:05:56.587Z,982.32
2019-04-03T13:07:07.572Z,982.14
2019-04-03T13:08:21.149Z,982.06
2019-04-03T13:09:30.020Z,982.03
2019-04-03T13:10:45.146Z,981.90
2019-04-03T13:11:52.499Z,981.70
2019-04-03T13:13:03.488Z,981.60
2019-04-03T13:14:23.836Z,981.63
2019-04-03T13:15:26.482Z,981.79
2019-04-03T13:16:37.771Z,981.64
2019-04-03T13:17:49.043Z,981.65
2019-04-03T13:18:59.389Z,981.51
2019-04-03T13:20:10.482Z,981.57
2019-04-03T13:21:21.447Z,981.58
2019-04-03T13:22:32.415Z,981.61
2019-04-03T13:23:45.804Z,981.69
2019-04-03T13:24:55.217Z,981.72
2019-04-03T13:26:05.810Z,981.81
2019-04-03T13:27:16.806Z,981.77
2019-04-03T13:28:28.085Z,981.86
2019-04-03T13:29:40.408Z,982.05
2019-04-03T13:30:50.145Z,982.12
2019-04-03T13:32:01.103Z,982.31
2019-04-03T13:33:12.239Z,982.48
2019-04-03T13:34:23.149Z,982.29
2019-04-03T13:35:34.041Z,982.30
2019-04-03T13:36:44.894Z,982.33
2019-04-03T13:37:56.309Z,982.39
2019-04-03T13:39:06.792Z,982.32
2019-04-03T13:40:17.855Z,982.11
2019-04-03T13:41:28.934Z,981.79
2019-04-03T13:42:40.194Z,981.40
2019-04-03T13:43:53.806Z,980.88
2019-04-03T13:45:02.941Z,980.36
2019-04-03T13:46:13.655Z,979.81
2019-04-03T13:47:24.908Z,979.43
2019-04-03T13:48:35.638Z,979.31
2019-04-03T13:49:49.352Z,979.17
2019-04-03T13:50:57.690Z,979.30
2019-04-03T13:52:09.997Z,979.35
2019-04-03T13:53:20.956Z,979.44
2019-04-03T13:54:31.541Z,979.56
2019-04-03T13:55:42.543Z,979.41
2019-04-03T13:56:53.799Z,978.97
2019-04-03T13:58:04.230Z,978.76
2019-04-03T13:59:15.491Z,978.41
2019-04-03T14:00:26.587Z,978.10
2019-04-03T14:01:39.491Z,977.96
2019-04-03T14:02:48.415Z,977.53
2019-04-03T14:03:59.509Z,977.53
2019-04-03T14:05:10.773Z,977.73
2019-04-03T14:06:21.876Z,977.73
2019-04-03T14:07:32.984Z,977.95
2019-04-03T14:08:45.249Z,978.18
2019-04-03T14:09:55.834Z,978.20
2019-04-03T14:11:05.931Z,978.44
2019-04-03T14:12:17.157Z,978.75
2019-04-03T14:13:27.931Z,979.23
2019-04-03T14:14:38.965Z,979.63
2019-04-03T14:15:50.318Z,980.00
2019-04-03T14:17:01.009Z,980.24
2019-04-03T14:18:12.060Z,980.60
2019-04-03T14:19:24.962Z,980.63
2019-04-03T14:20:34.043Z,980.59
2019-04-03T14:21:45.115Z,980.68
2019-04-03T14:22:56.384Z,980.80
2019-04-03T14:24:08.772Z,980.76
2019-04-03T14:25:22.292Z,980.74
2019-04-03T14:26:29.026Z,980.64
2019-04-03T14:27:40.027Z,980.77
2019-04-03T14:28:51.018Z,980.68
2019-04-03T14:30:02.008Z,980.66
2019-04-03T14:31:12.957Z,980.78
2019-04-03T14:32:24.316Z,980.92
2019-04-03T14:33:43.574Z,980.84
2019-04-03T14:34:45.935Z,980.59
2019-04-03T14:35:56.904Z,980.54
2019-04-03T14:37:07.889Z,980.65
2019-04-03T14:38:18.914Z,980.54
2019-04-03T14:39:29.838Z,980.55
2019-04-03T14:40:41.386Z,980.52
2019-04-03T14:41:54.336Z,980.45
2019-04-03T14:43:03.003Z,980.62
2019-04-03T14:44:13.754Z,980.63
2019-04-03T14:45:24.688Z,980.75
2019-04-03T14:46:35.646Z,980.77
2019-04-03T14:47:46.614Z,980.82
2019-04-03T14:48:59.294Z,980.87
2019-04-03T14:50:08.520Z,980.97
2019-04-03T14:51:19.479Z,981.03
2019-04-03T14:52:30.695Z,980.96
2019-04-03T14:53:41.382Z,981.07
2019-04-03T14:54:53.979Z,981.29
2019-04-03T14:56:03.726Z,981.44
2019-04-03T14:57:20.724Z,981.37
2019-04-03T14:58:26.845Z,981.44
2019-04-03T14:59:36.538Z,981.39
2019-04-03T15:00:49.487Z,981.38
2019-04-03T15:01:58.422Z,981.35
2019-04-03T15:03:09.462Z,981.29
2019-04-03T15:04:20.404Z,981.34
2019-04-03T15:05:31.330Z,981.35
2019-04-03T15:06:42.493Z,981.20
2019-04-03T15:07:53.203Z,981.15
2019-04-03T15:09:04.516Z,981.20
2019-04-03T15:10:15.378Z,981.30
2019-04-03T15:11:26.677Z,981.32
2019-04-03T15:12:39.829Z,981.28
2019-04-03T15:13:49.830Z,981.27
2019-04-03T15:14:59.228Z,981.26
2019-04-03T15:16:09.946Z,981.31
2019-04-03T15:17:20.675Z,981.40
2019-04-03T15:18:31.600Z,981.38
2019-04-03T15:19:43.103Z,981.48
2019-04-03T15:20:53.447Z,981.61
2019-04-03T15:22:04.503Z,981.71
2019-04-03T15:23:15.401Z,981.80
2019-04-03T15:24:26.306Z,981.91
2019-04-03T15:25:37.345Z,982.02
2019-04-03T15:26:48.125Z,982.10
2019-04-03T15:27:59.893Z,982.14
2019-04-03T15:29:09.934Z,982.22